Terminal Aerodrome Forecast
Issued by NWS

Home | Current Version | Previous Version | Text Only | Print | Product List | Glossary On
Versions: 1 2 3 4 5 6 7 8 9 10 11 12 13 14 15 16 17 18 19 20 21 22 23 24
643
FTUS43 KAPX 242147 AAA
TAFAPN
TAF AMD
KAPN 242147Z 2422/2518 05014KT 1 1/2SM -TSRA BR OVC004CB
     FM242210 05014KT 6SM BR OVC004
      TEMPO 2423/2501 2SM -TSRA OVC004CB
     FM250200 06011G20KT 2SM -RA BR OVC003
     FM250600 03005KT 2SM -DZ OVC003
     FM251300 26008KT 4SM -FZDZ OVC005
     FM251700 28014G22KT P6SM OVC025=

USA.gov is the U.S. government's official web portal to all federal, state and local government web resources and services.